Terminal Aerodrome Forecast
Issued by NWS Twin Cities, MN

Home | Current Version | Previous Version | Text Only | Print | Product List | Glossary Off
Versions: 1 2 3 4 5 6 7 8 9 10 11 12 13 14 15 16

433
FTUS43 KMPX 250520
TAFEAU
TAF
KEAU 250520Z 2506/2606 15008KT P6SM OVC010
     FM251000 18009KT 4SM -SHRA BR OVC007
     FM251900 25012G20KT P6SM OVC050
     FM260300 26012KT P6SM VCSH OVC025=

USA.gov is the U.S. government's official web portal to all federal, state and local government web resources and services.